Saturday, April 18, 2015, 9:01 PM EDT
Back to Local

KMPO, Mt Pocono Pocono Mountains

Location: Pocono Summit, PA, United States Lat: 41.133
Local Time: 9:01 PM EDT ( 1:01 GMT) Lon: -75.383
Time Zone: US/Eastern Elev: 1915 ft

Show me the last for .
Show Decoded

2015-04-18 19:53 METAR KMPO 182353Z AUTO 35014G23KT 10SM CLR 18/03 A3000 RMK AO2 SLP158 T01780028
                 10233 20178 53025 =
2015-04-18 18:53 METAR KMPO 182253Z AUTO 32012G20KT 10SM CLR 21/01 A2997 RMK AO2 SLP149 T02110006
                 =
2015-04-18 17:53 METAR KMPO 182153Z AUTO 29015G22KT 10SM CLR 23/00 A2993 RMK AO2 PK WND
                 30026/2114 SLP134 T02280000 =
2015-04-18 16:53 METAR KMPO 182053Z AUTO 32009KT 300V010 10SM SCT090 23/01 A2992 RMK AO2 SLP129
                 T02330006 55010 =
2015-04-18 15:53 METAR KMPO 181953Z AUTO 28011G21KT 10SM FEW080 22/03 A2992 RMK AO2 SLP128
                 T02220028 =
2015-04-18 14:53 METAR KMPO 181853Z AUTO 26014G20KT 10SM BKN080 22/03 A2994 RMK AO2 SLP134
                 T02220033 =
2015-04-18 13:53 METAR KMPO 181753Z AUTO 27010G19KT 10SM FEW070 21/03 A2995 RMK AO2 SLP140
                 T02110033 10211 20094 58020 =
2015-04-18 12:53 METAR KMPO 181653Z AUTO 26013G23KT 10SM FEW065 20/03 A2998 RMK AO2 SLP148
                 T02000033 =
2015-04-18 11:53 METAR KMPO 181553Z AUTO 32009G21KT 10SM CLR 19/03 A3000 RMK AO2 SLP157 T01940028
                 =
2015-04-18 10:53 METAR KMPO 181453Z AUTO 28011G18KT 10SM CLR 19/03 A3002 RMK AO2 SLP162 T01890028
                 58001 =
2015-04-18 09:53 METAR KMPO 181353Z AUTO 30010KT 10SM CLR 16/03 A3002 RMK AO2 SLP163 T01610033 =
2015-04-18 08:53 METAR KMPO 181253Z AUTO 30009KT 10SM CLR 13/06 A3002 RMK AO2 SLP164 T01330056 =
2015-04-18 07:53 METAR KMPO 181153Z AUTO 27004KT 10SM CLR 09/07 A3002 RMK AO2 SLP166 70001
                 T00940067 10094 20039 53011 =
2015-04-18 07:37 METAR KMPO 181137Z AUTO 24003KT 5SM BR CLR 08/06 A3002 RMK AO2 T00830061 $ =
2015-04-18 07:34 METAR KMPO 181134Z AUTO 23003KT 1SM BR CLR 08/06 A3001 RMK AO2 T00780061 $ =
2015-04-18 06:53 METAR KMPO 181053Z AUTO 25003KT 4SM BR CLR 04/03 A3000 RMK AO2 SLP164 T00440028
                 $ =
2015-04-18 05:53 METAR KMPO 180953Z AUTO 32005KT 6SM BR CLR 04/03 A2999 RMK AO2 SLP156 T00440033
                 $ =
2015-04-18 04:53 METAR KMPO 180853Z AUTO 32005KT 10SM CLR 07/05 A2998 RMK AO2 SLP155 T00670050
                 56006 $ =
2015-04-18 03:53 METAR KMPO 180753Z AUTO 32005KT 10SM CLR 08/06 A2999 RMK AO2 SLP155 T00780061 $
                 =
2015-04-18 02:53 METAR KMPO 180653Z AUTO 32007KT 10SM CLR 09/06 A2999 RMK AO2 SLP156 T00890061 $
                 =
2015-04-18 01:53 METAR KMPO 180553Z AUTO 33005KT 10SM CLR 08/07 A3000 RMK AO2 SLP160 T00830067
                 10150 20078 58002 $ =
2015-04-17 23:53 METAR KMPO 180353Z AUTO 32003KT 10SM FEW049 09/08 A3001 RMK AO2 SLP165 T00890078
                 $ =
2015-04-17 22:53 METAR KMPO 180253Z AUTO 00000KT 10SM FEW047 10/08 A3001 RMK AO2 SLP164 T01000083
                 51016 $ =

Support USWX by starting your Amazon purchase here.